Time;durP1;ratioP1;P1;durP2;ratioP2;P2;SDS_P1;SDS_P2;PMS_P1;PMS_P2;Temp;Humidity;BMP_temperature;BMP_pressure;BME280_temperature;BME280_humidity;BME280_pressure;Samples;Min_cycle;Max_cycle;Signal;HPM_P1;HPM_P2
2023/01/06 00:01:54;;;;;;;3.47;1.80;;;19.40;99.90;;;;;;4209531;28;20272;-74
2023/01/06 00:03:58;;;;;;;2.72;1.50;;;19.50;99.90;;;;;;4209327;28;20206;-74
2023/01/06 00:06:02;;;;;;;2.88;1.70;;;19.40;99.90;;;;;;4205518;28;20215;-74
2023/01/06 00:08:04;;;;;;;2.38;1.45;;;19.50;99.90;;;;;;4211325;28;20214;-74
2023/01/06 00:10:08;;;;;;;3.97;1.92;;;19.50;99.90;;;;;;4212843;28;20720;-74
2023/01/06 00:12:10;;;;;;;2.70;1.60;;;19.40;99.90;;;;;;4208712;28;20218;-74
2023/01/06 00:14:12;;;;;;;3.08;1.50;;;19.40;99.90;;;;;;4207517;28;20218;-74
2023/01/06 00:16:18;;;;;;;3.38;2.05;;;19.40;99.90;;;;;;4206603;28;20277;-74
2023/01/06 00:18:21;;;;;;;1.85;1.73;;;19.50;99.90;;;;;;4211004;28;20624;-74
2023/01/06 00:20:23;;;;;;;2.58;1.60;;;19.40;99.90;;;;;;4206283;28;20534;-74
2023/01/06 00:22:27;;;;;;;2.47;1.52;;;19.40;99.90;;;;;;4208037;28;20211;-74
2023/01/06 00:24:30;;;;;;;2.72;1.90;;;19.40;99.90;;;;;;4207855;28;20223;-74
2023/01/06 00:26:32;;;;;;;2.92;1.80;;;19.40;99.90;;;;;;4211950;28;20207;-74
2023/01/06 00:28:35;;;;;;;2.72;1.63;;;19.40;99.90;;;;;;4207336;28;20214;-74
2023/01/06 00:30:37;;;;;;;2.55;1.45;;;19.40;99.90;;;;;;4203682;28;20240;-74
2023/01/06 00:32:41;;;;;;;2.78;1.45;;;19.40;99.90;;;;;;4213245;28;21013;-74
2023/01/06 00:34:43;;;;;;;2.65;1.85;;;19.40;99.90;;;;;;4205283;28;20231;-74
2023/01/06 00:36:46;;;;;;;2.75;1.73;;;19.40;99.90;;;;;;4201273;28;20214;-74
2023/01/06 00:38:49;;;;;;;3.10;1.75;;;19.40;99.90;;;;;;4212591;28;20223;-74
2023/01/06 00:40:52;;;;;;;2.50;1.63;;;19.40;99.90;;;;;;4211247;28;20708;-74
2023/01/06 00:42:54;;;;;;;2.40;1.70;;;19.40;99.90;;;;;;4206120;28;20210;-74
2023/01/06 00:44:57;;;;;;;2.03;1.48;;;19.40;99.90;;;;;;4212208;28;20218;-74
2023/01/06 00:47:06;;;;;;;2.45;1.90;;;19.40;99.90;;;;;;4201407;28;20234;-74
2023/01/06 00:49:09;;;;;;;1.98;1.65;;;19.40;99.90;;;;;;4206728;28;20266;-74
2023/01/06 00:51:12;;;;;;;3.30;1.88;;;19.40;99.90;;;;;;4202595;28;20284;-74
2023/01/06 00:53:15;;;;;;;2.85;1.50;;;19.40;99.90;;;;;;4212269;28;20239;-74
2023/01/06 00:55:18;;;;;;;1.88;1.30;;;19.40;99.90;;;;;;4208908;28;20214;-74
2023/01/06 00:57:20;;;;;;;3.50;1.80;;;19.40;99.90;;;;;;4211709;28;20270;-73
2023/01/06 00:59:24;;;;;;;2.67;1.60;;;19.40;99.90;;;;;;4205046;28;20288;-74
2023/01/06 01:01:26;;;;;;;3.55;1.70;;;19.40;99.90;;;;;;4207994;28;20256;-74
2023/01/06 01:03:29;;;;;;;2.03;1.40;;;19.40;99.90;;;;;;4210622;28;20272;-74
2023/01/06 01:05:32;;;;;;;2.35;1.67;;;19.40;99.90;;;;;;4207738;28;20214;-73
2023/01/06 01:07:35;;;;;;;3.30;1.90;;;19.30;99.90;;;;;;4212677;28;20259;-74
2023/01/06 01:09:37;;;;;;;2.65;1.80;;;19.30;99.90;;;;;;4205118;28;20726;-73
2023/01/06 01:14:08;;;;;;;3.70;1.73;;;19.30;99.90;;;;;;4173832;28;20288;-74
2023/01/06 01:16:10;;;;;;;2.65;1.33;;;19.40;99.90;;;;;;4210372;28;20218;-73
2023/01/06 01:18:13;;;;;;;2.28;1.40;;;19.30;99.90;;;;;;4201708;28;20260;-74
2023/01/06 01:20:15;;;;;;;3.20;1.52;;;19.30;99.90;;;;;;4199388;28;20223;-73
2023/01/06 01:22:19;;;;;;;3.05;1.83;;;19.30;99.90;;;;;;4207444;28;20218;-73
2023/01/06 01:24:22;;;;;;;3.42;1.85;;;19.30;99.90;;;;;;4203963;28;20280;-73
2023/01/06 01:26:24;;;;;;;2.80;1.52;;;19.30;99.90;;;;;;4210519;28;20259;-73
2023/01/06 01:28:27;;;;;;;3.33;1.92;;;19.30;99.90;;;;;;4207269;28;20677;-74
2023/01/06 01:30:29;;;;;;;3.03;1.70;;;19.30;99.90;;;;;;4205864;28;20247;-74
2023/01/06 01:32:31;;;;;;;2.35;1.42;;;19.20;99.90;;;;;;4210553;28;20222;-74
2023/01/06 01:34:35;;;;;;;2.65;1.50;;;19.30;99.90;;;;;;4208812;28;20280;-74
2023/01/06 01:36:38;;;;;;;2.60;1.60;;;19.30;99.90;;;;;;4210622;28;20207;-74
2023/01/06 01:38:42;;;;;;;3.05;1.65;;;19.30;99.90;;;;;;4209627;28;20206;-74
2023/01/06 01:40:47;;;;;;;3.33;1.60;;;19.30;99.90;;;;;;4207506;28;20261;-74
2023/01/06 01:42:50;;;;;;;1.85;1.42;;;19.30;99.90;;;;;;4203497;28;20273;-74
2023/01/06 01:45:00;;;;;;;2.20;1.55;;;19.30;99.90;;;;;;4209755;28;20211;-74
2023/01/06 01:47:02;;;;;;;2.83;1.38;;;19.30;99.90;;;;;;4196642;28;20219;-74
2023/01/06 01:49:10;;;;;;;1.98;1.58;;;19.30;99.90;;;;;;4203376;28;20219;-74
2023/01/06 01:51:18;;;;;;;3.53;1.60;;;19.30;99.90;;;;;;4199082;28;20271;-73
2023/01/06 01:53:25;;;;;;;1.73;1.30;;;19.30;99.90;;;;;;4206957;28;20264;-74
2023/01/06 01:55:30;;;;;;;2.17;1.55;;;19.20;99.90;;;;;;4203222;28;20264;-74
2023/01/06 01:57:36;;;;;;;2.67;1.67;;;19.30;99.90;;;;;;4202065;28;20704;-73
2023/01/06 01:59:40;;;;;;;2.45;1.70;;;19.20;99.90;;;;;;4208859;28;20226;-73
2023/01/06 02:01:43;;;;;;;2.05;1.40;;;19.30;99.90;;;;;;4209737;28;20260;-73
2023/01/06 02:03:46;;;;;;;3.78;1.80;;;19.20;99.90;;;;;;4215113;28;20211;-74
2023/01/06 02:05:57;;;;;;;1.77;1.40;;;19.20;99.90;;;;;;4206475;28;20214;-73
2023/01/06 02:08:04;;;;;;;2.22;1.60;;;19.20;99.90;;;;;;4214940;28;20623;-74
2023/01/06 02:10:10;;;;;;;2.55;1.58;;;19.20;99.90;;;;;;4211203;28;20967;-73
2023/01/06 02:12:15;;;;;;;3.47;1.73;;;19.20;99.90;;;;;;4215624;28;20626;-73
2023/01/06 02:14:19;;;;;;;2.20;1.45;;;19.20;99.90;;;;;;4209615;28;20242;-74
2023/01/06 02:16:28;;;;;;;2.75;1.52;;;19.20;99.90;;;;;;4210460;28;20255;-74
2023/01/06 02:18:46;;;;;;;2.35;1.60;;;19.30;99.90;;;;;;4209681;28;20210;-74
2023/01/06 02:21:24;;;;;;;3.50;1.60;;;19.20;99.90;;;;;;4210097;28;20897;-74
2023/01/06 02:24:03;;;;;;;2.22;1.40;;;19.20;99.90;;;;;;4212751;28;20662;-74
2023/01/06 02:26:48;;;;;;;2.60;1.83;;;19.20;99.90;;;;;;4211210;28;20265;-73
2023/01/06 02:29:28;;;;;;;3.28;1.40;;;19.20;99.90;;;;;;4208200;28;20267;-74
2023/01/06 02:31:56;;;;;;;2.00;1.60;;;19.20;99.90;;;;;;4188836;28;20676;-74
2023/01/06 02:34:06;;;;;;;2.63;1.85;;;19.20;99.90;;;;;;4211785;28;20234;-74
2023/01/06 02:36:27;;;;;;;2.75;1.45;;;19.10;99.90;;;;;;4214455;28;20623;-74
2023/01/06 02:38:40;;;;;;;3.65;1.52;;;19.20;99.90;;;;;;4205677;28;20271;-74
2023/01/06 02:40:54;;;;;;;3.03;1.67;;;19.20;99.90;;;;;;4210135;28;20214;-74
2023/01/06 02:43:09;;;;;;;2.30;1.65;;;19.20;99.90;;;;;;4203094;28;20219;-74
2023/01/06 02:45:19;;;;;;;2.08;1.50;;;19.20;99.90;;;;;;4204146;28;20234;-74
2023/01/06 02:47:30;;;;;;;2.50;1.73;;;19.20;99.90;;;;;;4210174;28;20251;-74
2023/01/06 02:49:42;;;;;;;2.88;1.45;;;19.20;99.90;;;;;;4213120;28;20271;-74
2023/01/06 02:51:51;;;;;;;1.95;1.40;;;19.20;99.90;;;;;;4213947;28;20206;-74
2023/01/06 02:54:04;;;;;;;2.05;1.25;;;19.20;99.90;;;;;;4202682;28;20218;-74
2023/01/06 02:56:06;;;;;;;2.08;1.38;;;19.10;99.90;;;;;;4205979;28;20215;-74
2023/01/06 02:58:15;;;;;;;1.50;1.17;;;19.20;99.90;;;;;;4212525;28;20219;-74
2023/01/06 03:00:22;;;;;;;3.17;1.73;;;19.10;99.90;;;;;;4213050;28;20241;-74
2023/01/06 03:02:30;;;;;;;3.17;1.75;;;19.10;99.90;;;;;;4199447;28;20210;-74
2023/01/06 03:04:38;;;;;;;3.33;1.35;;;19.10;99.90;;;;;;4205406;28;20259;-74
2023/01/06 03:06:43;;;;;;;2.42;1.33;;;19.10;99.90;;;;;;4210093;28;20267;-74
2023/01/06 03:08:48;;;;;;;1.83;1.50;;;19.10;99.90;;;;;;4206737;28;20211;-74
2023/01/06 03:10:52;;;;;;;2.30;1.20;;;19.10;99.90;;;;;;4210382;28;20559;-74
2023/01/06 03:13:00;;;;;;;1.92;1.20;;;19.10;99.90;;;;;;4203334;28;20616;-74
2023/01/06 03:15:03;;;;;;;2.08;1.60;;;19.10;99.90;;;;;;4210393;28;20226;-74
2023/01/06 03:17:05;;;;;;;2.65;1.70;;;19.10;99.90;;;;;;4208198;28;20614;-74
2023/01/06 03:19:09;;;;;;;2.75;1.45;;;19.10;99.90;;;;;;4213505;28;20218;-74
2023/01/06 03:21:15;;;;;;;2.40;1.42;;;19.10;99.90;;;;;;4209741;28;20226;-74
2023/01/06 03:23:18;;;;;;;2.25;1.40;;;19.10;99.90;;;;;;4205420;28;20651;-74
2023/01/06 03:25:22;;;;;;;2.42;1.65;;;19.10;99.90;;;;;;4211900;28;20267;-74
2023/01/06 03:27:26;;;;;;;2.83;1.40;;;19.10;99.90;;;;;;4209488;28;20489;-74
2023/01/06 03:29:29;;;;;;;2.38;1.30;;;19.10;99.90;;;;;;4208672;28;20218;-74
2023/01/06 03:31:37;;;;;;;2.53;1.50;;;19.10;99.90;;;;;;4203970;28;20221;-74
2023/01/06 03:33:47;;;;;;;1.65;1.20;;;19.10;99.90;;;;;;4211404;28;20218;-74
2023/01/06 03:36:07;;;;;;;1.75;1.25;;;19.10;99.90;;;;;;4207939;28;20279;-74
2023/01/06 03:38:15;;;;;;;2.80;1.52;;;19.10;99.90;;;;;;4201079;28;20199;-74
2023/01/06 03:40:28;;;;;;;1.92;1.38;;;19.10;99.90;;;;;;4205164;28;20218;-74
2023/01/06 03:45:04;;;;;;;2.45;1.23;;;19.10;99.90;;;;;;4205228;28;20624;-73
2023/01/06 03:47:14;;;;;;;1.92;1.30;;;19.10;99.90;;;;;;4210494;28;20271;-73
2023/01/06 03:49:21;;;;;;;1.80;1.30;;;19.00;99.90;;;;;;4209667;28;20240;-73
2023/01/06 03:51:38;;;;;;;1.65;1.10;;;19.00;99.90;;;;;;4211451;28;20214;-73
2023/01/06 03:53:46;;;;;;;2.25;1.30;;;19.10;99.90;;;;;;4202630;28;20276;-73
2023/01/06 03:55:56;;;;;;;1.88;1.45;;;19.10;99.90;;;;;;4210914;28;20377;-73
2023/01/06 03:58:01;;;;;;;2.70;1.63;;;19.00;99.90;;;;;;4209645;28;20210;-73
2023/01/06 04:00:11;;;;;;;2.00;1.27;;;19.00;99.90;;;;;;4202983;28;20231;-73
2023/01/06 04:02:14;;;;;;;2.53;1.40;;;19.00;99.90;;;;;;4213290;28;20214;-73
2023/01/06 04:04:17;;;;;;;3.75;1.35;;;19.10;99.90;;;;;;4213367;28;20283;-73
2023/01/06 04:06:20;;;;;;;1.80;1.30;;;19.00;99.90;;;;;;4210610;28;20290;-73
2023/01/06 04:08:24;;;;;;;2.25;1.10;;;19.00;99.90;;;;;;4210756;28;20412;-73
2023/01/06 04:10:27;;;;;;;2.63;1.70;;;19.00;99.90;;;;;;4212350;28;20712;-74
2023/01/06 04:12:37;;;;;;;2.55;1.45;;;19.00;99.90;;;;;;4212827;28;20218;-73
2023/01/06 04:14:40;;;;;;;2.00;1.23;;;19.10;99.90;;;;;;4212285;28;20287;-73
2023/01/06 04:16:42;;;;;;;2.83;1.50;;;19.10;99.90;;;;;;4213186;28;20671;-73
2023/01/06 04:18:45;;;;;;;1.85;1.20;;;19.00;99.90;;;;;;4213775;28;20913;-73
2023/01/06 04:20:47;;;;;;;2.47;1.60;;;19.00;99.90;;;;;;4207829;28;20676;-73
2023/01/06 04:22:50;;;;;;;2.15;1.20;;;19.00;99.90;;;;;;4207318;28;20264;-73
2023/01/06 04:24:56;;;;;;;2.65;1.30;;;19.00;99.90;;;;;;4207717;28;20211;-73
2023/01/06 04:26:58;;;;;;;2.20;1.40;;;18.90;99.90;;;;;;4210276;28;20219;-73
2023/01/06 04:29:01;;;;;;;2.95;1.50;;;19.00;99.90;;;;;;4212946;28;20214;-73
2023/01/06 04:31:03;;;;;;;2.92;1.65;;;19.00;99.90;;;;;;4209225;28;20214;-73
2023/01/06 04:33:06;;;;;;;2.30;1.30;;;19.00;99.90;;;;;;4211824;28;20722;-73
2023/01/06 04:35:09;;;;;;;1.48;0.98;;;19.00;99.90;;;;;;4203549;28;20296;-73
2023/01/06 04:37:12;;;;;;;2.03;1.20;;;19.00;99.90;;;;;;4208626;28;20222;-74
2023/01/06 04:39:14;;;;;;;1.98;1.35;;;18.90;99.90;;;;;;4210908;28;20215;-74
2023/01/06 04:41:18;;;;;;;2.08;1.40;;;19.00;99.90;;;;;;4211372;28;20214;-74
2023/01/06 04:43:20;;;;;;;1.90;1.02;;;19.00;99.90;;;;;;4213307;28;20240;-74
2023/01/06 04:45:22;;;;;;;2.83;1.45;;;19.00;99.90;;;;;;4212384;28;20211;-74
2023/01/06 04:47:25;;;;;;;1.42;1.05;;;19.00;99.90;;;;;;4210329;28;20214;-74
2023/01/06 04:49:27;;;;;;;2.53;1.48;;;19.00;99.90;;;;;;4209983;28;20214;-74
2023/01/06 04:51:30;;;;;;;1.98;1.25;;;19.00;99.90;;;;;;4212772;28;20214;-74
2023/01/06 04:53:34;;;;;;;2.25;1.00;;;19.00;99.90;;;;;;4201957;28;20207;-74
2023/01/06 04:55:38;;;;;;;2.35;1.45;;;19.00;99.90;;;;;;4211340;28;20283;-74
2023/01/06 04:57:42;;;;;;;1.33;0.98;;;19.00;99.90;;;;;;4209035;28;20218;-74
2023/01/06 04:59:44;;;;;;;1.58;1.17;;;18.90;99.90;;;;;;4197203;28;20288;-74
2023/01/06 05:01:46;;;;;;;2.05;1.10;;;18.90;99.90;;;;;;4203104;28;20272;-74
2023/01/06 05:03:49;;;;;;;1.83;1.23;;;18.90;99.90;;;;;;4203697;28;20210;-74
2023/01/06 05:05:51;;;;;;;1.88;1.27;;;18.90;99.90;;;;;;4205812;28;20211;-74
2023/01/06 05:07:54;;;;;;;1.77;1.20;;;18.90;99.90;;;;;;4211159;28;20214;-74
2023/01/06 05:09:56;;;;;;;1.83;1.10;;;18.90;99.90;;;;;;4212147;28;20222;-73
2023/01/06 05:11:59;;;;;;;1.75;1.30;;;18.90;99.90;;;;;;4205179;28;20671;-74
2023/01/06 05:14:03;;;;;;;1.92;1.17;;;18.90;99.90;;;;;;4203021;28;20214;-74
2023/01/06 05:16:09;;;;;;;3.05;1.23;;;18.90;99.90;;;;;;4207748;28;20234;-74
2023/01/06 05:18:11;;;;;;;2.72;1.30;;;18.90;99.90;;;;;;4212506;28;20206;-74
2023/01/06 05:20:13;;;;;;;1.52;1.00;;;18.90;99.90;;;;;;4202760;28;20214;-74
2023/01/06 05:22:16;;;;;;;2.20;1.05;;;18.90;99.90;;;;;;4203335;28;20218;-74
2023/01/06 05:24:18;;;;;;;1.88;1.30;;;18.90;99.90;;;;;;4205726;28;20555;-74
2023/01/06 05:26:22;;;;;;;1.70;1.10;;;18.90;99.90;;;;;;4207501;28;20206;-73
2023/01/06 05:28:25;;;;;;;2.58;1.48;;;18.90;99.90;;;;;;4200396;28;20210;-74
2023/01/06 05:30:28;;;;;;;2.03;1.20;;;18.90;99.90;;;;;;4210313;28;20255;-74
2023/01/06 05:32:31;;;;;;;1.90;1.05;;;18.90;99.90;;;;;;4208765;28;20270;-74
2023/01/06 05:34:33;;;;;;;2.67;1.17;;;18.90;99.90;;;;;;4208780;28;20565;-73
2023/01/06 05:36:36;;;;;;;2.13;1.40;;;18.90;99.90;;;;;;4211001;28;20295;-74
2023/01/06 05:38:38;;;;;;;2.30;1.35;;;18.90;99.90;;;;;;4204300;28;20263;-74
2023/01/06 05:40:41;;;;;;;1.95;1.17;;;18.90;99.90;;;;;;4207205;28;20211;-73
2023/01/06 05:42:43;;;;;;;1.98;1.13;;;18.90;99.90;;;;;;4207945;28;20351;-74
2023/01/06 05:44:45;;;;;;;2.00;1.30;;;18.90;99.90;;;;;;4209784;28;20237;-74
2023/01/06 05:46:49;;;;;;;2.42;1.30;;;18.90;99.90;;;;;;4207813;28;20211;-73
2023/01/06 05:48:51;;;;;;;1.08;0.98;;;18.90;99.90;;;;;;4207491;28;20211;-74
2023/01/06 05:51:01;;;;;;;2.83;1.50;;;18.90;99.90;;;;;;4208564;28;20239;-74
2023/01/06 05:53:03;;;;;;;1.50;0.98;;;18.90;99.90;;;;;;4207373;28;20733;-74
2023/01/06 05:55:06;;;;;;;2.05;1.25;;;18.90;99.90;;;;;;4205424;28;20215;-73
2023/01/06 05:57:10;;;;;;;1.70;1.23;;;18.90;99.90;;;;;;4206036;28;20246;-74
2023/01/06 05:59:12;;;;;;;1.92;1.02;;;18.90;99.90;;;;;;4212053;28;20311;-74
2023/01/06 06:01:18;;;;;;;1.33;1.10;;;18.90;99.90;;;;;;4207059;28;20214;-74
2023/01/06 06:03:22;;;;;;;1.40;0.98;;;18.90;99.90;;;;;;4206304;28;20264;-74
2023/01/06 06:05:24;;;;;;;1.25;1.08;;;18.90;99.90;;;;;;4208931;28;20206;-74
2023/01/06 06:07:26;;;;;;;1.67;1.20;;;18.90;99.90;;;;;;4203656;28;20218;-74
2023/01/06 06:09:29;;;;;;;1.80;1.10;;;18.90;99.90;;;;;;4206399;28;20260;-74
2023/01/06 06:11:31;;;;;;;2.00;1.17;;;18.90;99.90;;;;;;4207783;28;20218;-74
2023/01/06 06:13:33;;;;;;;1.42;0.90;;;18.90;99.90;;;;;;4205806;28;20210;-74
2023/01/06 06:15:36;;;;;;;1.77;1.08;;;19.00;99.90;;;;;;4204379;28;20222;-74
2023/01/06 06:17:38;;;;;;;1.98;1.20;;;18.90;99.90;;;;;;4211150;28;20260;-73
2023/01/06 06:19:42;;;;;;;1.40;1.10;;;18.90;99.90;;;;;;4201395;28;20260;-73
2023/01/06 06:21:44;;;;;;;1.63;1.13;;;19.00;99.90;;;;;;4205948;28;20322;-74
2023/01/06 06:23:47;;;;;;;2.35;0.90;;;19.00;99.90;;;;;;4198826;28;20273;-73
2023/01/06 06:25:50;;;;;;;2.38;1.30;;;19.00;99.90;;;;;;4208148;28;20226;-74
2023/01/06 06:27:56;;;;;;;1.27;0.98;;;19.00;99.90;;;;;;4207556;28;20757;-74
2023/01/06 06:29:59;;;;;;;1.00;0.80;;;19.00;99.90;;;;;;4206241;28;20264;-74
2023/01/06 06:32:02;;;;;;;1.75;1.13;;;19.00;99.90;;;;;;4207913;28;21424;-74
2023/01/06 06:34:04;;;;;;;1.40;0.93;;;19.00;99.90;;;;;;4208212;28;20276;-73
2023/01/06 06:36:11;;;;;;;2.00;1.10;;;19.00;99.90;;;;;;4209038;28;20234;-74
2023/01/06 06:38:13;;;;;;;2.55;1.10;;;19.00;99.90;;;;;;4207650;28;20215;-74
2023/01/06 06:40:15;;;;;;;2.25;1.00;;;19.00;99.90;;;;;;4210615;28;20271;-74
2023/01/06 06:42:18;;;;;;;1.23;0.93;;;19.00;99.90;;;;;;4202950;28;20219;-74
2023/01/06 06:44:20;;;;;;;1.50;0.95;;;19.00;99.90;;;;;;4210499;28;20206;-74
2023/01/06 06:46:23;;;;;;;1.40;1.02;;;19.10;99.90;;;;;;4201490;28;20207;-74
2023/01/06 06:48:25;;;;;;;1.58;0.90;;;19.10;99.90;;;;;;4199415;28;20392;-73
2023/01/06 06:50:28;;;;;;;1.38;0.90;;;19.10;99.90;;;;;;4214281;28;20215;-73
2023/01/06 06:52:31;;;;;;;1.17;1.02;;;19.10;99.90;;;;;;4213519;28;20222;-73
2023/01/06 06:54:34;;;;;;;1.27;0.88;;;19.00;99.90;;;;;;4205463;28;20215;-73
2023/01/06 06:56:36;;;;;;;1.40;1.10;;;19.10;99.90;;;;;;4210834;28;20239;-73
2023/01/06 06:58:39;;;;;;;1.88;0.95;;;19.10;99.90;;;;;;4211108;28;20218;-73
2023/01/06 07:00:41;;;;;;;1.58;1.10;;;19.10;99.90;;;;;;4209585;28;20256;-73
2023/01/06 07:02:47;;;;;;;1.45;1.00;;;19.10;99.90;;;;;;4213700;28;20215;-74
2023/01/06 07:04:50;;;;;;;1.65;0.90;;;19.10;99.90;;;;;;4210219;28;20198;-73
2023/01/06 07:06:53;;;;;;;1.98;1.17;;;19.10;99.90;;;;;;4211167;28;20631;-74
2023/01/06 07:08:56;;;;;;;0.80;0.80;;;19.20;99.90;;;;;;4208761;28;20219;-73
2023/01/06 07:10:59;;;;;;;1.50;0.88;;;19.20;99.90;;;;;;4213891;28;20264;-74
2023/01/06 07:13:01;;;;;;;1.85;1.00;;;19.20;99.90;;;;;;4208030;28;20211;-73
2023/01/06 07:15:04;;;;;;;0.95;0.70;;;19.20;99.90;;;;;;4208602;28;20206;-74
2023/01/06 07:17:07;;;;;;;1.27;0.85;;;19.20;99.90;;;;;;4207496;28;20238;-74
2023/01/06 07:19:09;;;;;;;1.15;0.73;;;19.20;99.90;;;;;;4211782;28;20239;-74
2023/01/06 07:21:12;;;;;;;2.20;1.10;;;19.20;99.90;;;;;;4212583;28;20218;-74
2023/01/06 07:23:14;;;;;;;1.23;0.90;;;19.20;99.90;;;;;;4210213;28;20210;-73
2023/01/06 07:25:18;;;;;;;0.85;0.70;;;19.20;99.90;;;;;;4209519;28;20218;-74
2023/01/06 07:27:20;;;;;;;1.15;0.80;;;19.20;99.90;;;;;;4211938;28;20210;-73
2023/01/06 07:29:23;;;;;;;1.23;0.95;;;19.20;99.90;;;;;;4208034;28;20218;-73
2023/01/06 07:31:25;;;;;;;1.55;0.93;;;19.20;99.90;;;;;;4208693;28;20211;-73
2023/01/06 07:33:28;;;;;;;1.38;0.77;;;19.20;99.90;;;;;;4206602;28;20222;-74
2023/01/06 07:35:30;;;;;;;1.48;0.90;;;19.30;99.90;;;;;;4214063;28;20215;-74
2023/01/06 07:37:33;;;;;;;1.17;0.88;;;19.30;99.90;;;;;;4207291;28;20666;-74
2023/01/06 07:39:35;;;;;;;1.13;0.90;;;19.30;99.90;;;;;;4208518;28;20232;-74
2023/01/06 07:41:39;;;;;;;0.98;0.80;;;19.30;99.90;;;;;;4201742;28;20211;-73
2023/01/06 07:43:41;;;;;;;1.92;0.80;;;19.30;99.90;;;;;;4209340;28;20256;-73
2023/01/06 07:45:46;;;;;;;1.27;0.93;;;19.30;99.90;;;;;;4210489;28;20215;-73
2023/01/06 07:47:48;;;;;;;2.10;1.02;;;19.30;99.90;;;;;;4208478;28;20260;-73
2023/01/06 07:49:51;;;;;;;1.05;0.80;;;19.40;99.90;;;;;;4210307;28;20252;-73
2023/01/06 07:51:53;;;;;;;1.83;0.73;;;19.30;99.90;;;;;;4208769;28;20713;-73
2023/01/06 07:53:55;;;;;;;0.93;0.80;;;19.30;99.90;;;;;;4207947;28;20267;-73
2023/01/06 07:55:58;;;;;;;1.20;0.80;;;19.40;99.90;;;;;;4206083;28;20207;-73
2023/01/06 07:58:05;;;;;;;2.00;0.90;;;19.40;99.90;;;;;;4207250;28;20226;-73
2023/01/06 08:00:09;;;;;;;1.88;0.77;;;19.40;99.90;;;;;;4210832;28;20238;-73
2023/01/06 08:02:11;;;;;;;2.40;0.95;;;19.40;99.90;;;;;;4207001;28;20257;-73
2023/01/06 08:04:14;;;;;;;1.10;0.80;;;19.40;99.90;;;;;;4206744;28;20206;-73
2023/01/06 08:06:16;;;;;;;1.50;0.75;;;19.40;99.90;;;;;;4206316;28;20223;-73
2023/01/06 08:08:18;;;;;;;1.17;0.80;;;19.40;99.90;;;;;;4202079;28;20207;-73
2023/01/06 08:10:21;;;;;;;1.35;0.90;;;19.40;99.90;;;;;;4209016;28;20214;-73
2023/01/06 08:12:23;;;;;;;1.05;0.70;;;19.40;99.90;;;;;;4212363;28;20598;-73
2023/01/06 08:14:27;;;;;;;0.98;0.65;;;19.40;99.90;;;;;;4201984;28;20264;-73
2023/01/06 08:16:29;;;;;;;0.88;0.57;;;19.40;99.90;;;;;;4210176;28;20215;-73
2023/01/06 08:18:32;;;;;;;0.63;0.60;;;19.40;99.90;;;;;;4202153;28;21014;-73
2023/01/06 08:20:34;;;;;;;1.77;0.70;;;19.40;99.90;;;;;;4203812;28;20219;-74
2023/01/06 08:22:37;;;;;;;0.90;0.75;;;19.40;99.90;;;;;;4210949;28;20287;-74
2023/01/06 08:24:39;;;;;;;0.90;0.73;;;19.40;99.90;;;;;;4211907;28;20680;-74
2023/01/06 08:26:42;;;;;;;1.00;0.90;;;19.40;99.90;;;;;;4209543;28;20218;-74
2023/01/06 08:28:45;;;;;;;1.63;0.82;;;19.40;99.90;;;;;;4201512;28;20219;-74
2023/01/06 08:30:49;;;;;;;0.82;0.60;;;19.50;99.90;;;;;;4206274;28;20214;-74
2023/01/06 08:32:51;;;;;;;0.85;0.60;;;19.50;99.90;;;;;;4209320;28;20219;-74
2023/01/06 08:34:54;;;;;;;1.27;0.77;;;19.40;99.90;;;;;;4206145;28;20281;-74
2023/01/06 08:36:56;;;;;;;1.33;0.77;;;19.50;99.90;;;;;;4205986;28;20668;-74
2023/01/06 08:38:58;;;;;;;2.00;0.90;;;19.50;99.90;;;;;;4211120;28;20222;-74
2023/01/06 08:41:02;;;;;;;1.20;0.80;;;19.50;99.90;;;;;;4207426;28;20271;-74
2023/01/06 08:43:04;;;;;;;1.10;0.70;;;19.50;99.90;;;;;;4208929;28;20202;-74
2023/01/06 08:45:07;;;;;;;1.33;0.63;;;19.50;99.90;;;;;;4212642;28;20218;-74
2023/01/06 08:47:11;;;;;;;1.25;0.80;;;19.50;99.90;;;;;;4209820;28;20931;-74
2023/01/06 08:49:14;;;;;;;1.02;0.68;;;19.50;99.90;;;;;;4208987;28;20263;-74
2023/01/06 08:51:19;;;;;;;1.42;0.45;;;19.50;99.90;;;;;;4207309;28;20254;-75
2023/01/06 08:53:22;;;;;;;1.55;0.73;;;19.60;99.90;;;;;;4200547;28;20601;-74
2023/01/06 08:55:24;;;;;;;0.70;0.70;;;19.50;99.90;;;;;;4210802;28;20218;-74
2023/01/06 08:57:26;;;;;;;0.75;0.60;;;19.50;99.90;;;;;;4210423;28;20726;-74
2023/01/06 08:59:29;;;;;;;1.08;0.77;;;19.60;99.90;;;;;;4206493;28;20230;-74
2023/01/06 09:01:33;;;;;;;0.82;0.65;;;19.60;99.90;;;;;;4209700;28;20210;-75
2023/01/06 09:03:37;;;;;;;1.00;0.70;;;19.60;99.90;;;;;;4212531;28;20350;-74
2023/01/06 09:05:39;;;;;;;1.15;0.60;;;19.60;99.90;;;;;;4209272;28;20207;-74
2023/01/06 09:07:42;;;;;;;0.75;0.55;;;19.60;99.90;;;;;;4206466;28;20644;-74
2023/01/06 09:09:44;;;;;;;0.88;0.55;;;19.60;99.90;;;;;;4209307;28;20612;-74
2023/01/06 09:11:46;;;;;;;1.90;0.82;;;19.60;99.90;;;;;;4212106;28;20202;-74
2023/01/06 09:13:50;;;;;;;1.17;0.60;;;19.60;99.90;;;;;;4211567;28;20267;-74
2023/01/06 09:15:53;;;;;;;0.88;0.70;;;19.60;99.90;;;;;;4210950;28;20724;-74
2023/01/06 09:17:55;;;;;;;0.82;0.60;;;19.70;99.90;;;;;;4207920;28;20284;-74
2023/01/06 09:19:59;;;;;;;1.33;0.80;;;19.60;99.90;;;;;;4210160;28;20656;-74
2023/01/06 09:22:01;;;;;;;1.27;0.88;;;19.60;99.90;;;;;;4205734;28;20578;-74
2023/01/06 09:24:04;;;;;;;0.70;0.50;;;19.60;99.90;;;;;;4199123;28;20260;-74
2023/01/06 09:26:07;;;;;;;0.55;0.47;;;19.70;99.90;;;;;;4204026;28;20257;-74
2023/01/06 09:28:10;;;;;;;0.90;0.60;;;19.70;99.90;;;;;;4201265;28;20296;-74
2023/01/06 09:30:13;;;;;;;1.40;0.73;;;19.70;99.90;;;;;;4206531;28;20215;-74
2023/01/06 09:32:15;;;;;;;1.35;0.73;;;19.70;99.90;;;;;;4211037;28;20227;-74
2023/01/06 09:34:24;;;;;;;0.82;0.50;;;19.70;99.90;;;;;;4211329;28;20226;-75
2023/01/06 09:36:34;;;;;;;0.80;0.68;;;19.70;99.90;;;;;;4195901;28;20218;-72
2023/01/06 09:38:36;;;;;;;0.75;0.60;;;19.70;99.90;;;;;;4205572;28;20638;-71
2023/01/06 09:40:53;;;;;;;0.90;0.60;;;19.70;99.90;;;;;;4205270;28;20272;-71
2023/01/06 09:43:08;;;;;;;0.80;0.70;;;19.70;99.90;;;;;;4209166;28;20210;-71
2023/01/06 09:45:16;;;;;;;0.70;0.70;;;19.70;99.90;;;;;;4210217;28;20218;-71
2023/01/06 09:47:23;;;;;;;0.77;0.50;;;19.70;99.90;;;;;;4210772;28;20221;-71
2023/01/06 09:49:31;;;;;;;1.10;0.80;;;19.70;99.90;;;;;;4209271;28;20207;-71
2023/01/06 09:51:36;;;;;;;1.15;0.80;;;19.70;99.90;;;;;;4211687;28;20270;-71
2023/01/06 09:53:42;;;;;;;1.20;0.73;;;19.70;99.90;;;;;;4204670;28;20733;-71
2023/01/06 09:55:49;;;;;;;0.57;0.50;;;19.70;99.90;;;;;;4210625;28;20218;-71
2023/01/06 09:57:58;;;;;;;0.68;0.55;;;19.80;99.90;;;;;;4208695;28;20574;-71
2023/01/06 10:00:02;;;;;;;0.75;0.57;;;19.70;99.90;;;;;;4207467;28;20238;-71
2023/01/06 10:02:11;;;;;;;0.98;0.70;;;19.80;99.90;;;;;;4207609;28;20223;-71
2023/01/06 10:04:17;;;;;;;1.33;0.70;;;19.80;99.90;;;;;;4209263;28;20260;-75
2023/01/06 10:06:32;;;;;;;0.88;0.60;;;19.80;99.90;;;;;;4207707;28;20316;-75
2023/01/06 10:08:47;;;;;;;0.93;0.68;;;19.80;99.90;;;;;;4203534;28;20260;-75
2023/01/06 10:11:06;;;;;;;1.38;0.75;;;19.70;99.90;;;;;;4208885;28;20221;-75
2023/01/06 10:13:34;;;;;;;0.80;0.60;;;19.80;99.90;;;;;;4207798;28;20264;-75
2023/01/06 10:15:46;;;;;;;0.77;0.60;;;19.80;99.90;;;;;;4205178;28;20251;-75
2023/01/06 10:18:04;;;;;;;1.25;0.85;;;19.80;99.90;;;;;;4211515;28;20271;-74
2023/01/06 10:20:20;;;;;;;1.05;0.70;;;19.80;99.90;;;;;;4206647;28;20268;-74
2023/01/06 10:22:33;;;;;;;0.93;0.65;;;19.80;99.90;;;;;;4210033;28;20273;-75
2023/01/06 10:24:54;;;;;;;0.90;0.77;;;19.80;99.90;;;;;;4204280;28;20676;-75
2023/01/06 10:26:58;;;;;;;0.80;0.70;;;19.80;99.90;;;;;;4209975;28;20214;-75
2023/01/06 10:29:05;;;;;;;1.98;0.90;;;19.90;99.90;;;;;;4209984;28;20272;-75
2023/01/06 10:31:11;;;;;;;0.90;0.68;;;19.80;99.90;;;;;;4210737;28;20277;-75
2023/01/06 10:33:22;;;;;;;0.77;0.60;;;19.80;99.90;;;;;;4208624;28;20214;-74
2023/01/06 10:35:27;;;;;;;0.80;0.55;;;19.80;99.90;;;;;;4201993;28;20276;-75
2023/01/06 10:37:36;;;;;;;1.05;0.50;;;19.80;99.90;;;;;;4204685;28;20274;-75
2023/01/06 10:39:40;;;;;;;1.10;0.77;;;19.90;99.90;;;;;;4212531;28;20230;-75
2023/01/06 10:42:54;;;;;;;1.75;0.70;;;19.90;99.90;;;;;;4212961;28;20208;-75
2023/01/06 10:44:20;;;;;;;0.98;0.52;;;19.90;99.90;;;;;;4212745;28;20287;-75
2023/01/06 10:46:22;;;;;;;0.63;0.60;;;19.90;99.90;;;;;;4204199;28;20654;-75
2023/01/06 10:48:28;;;;;;;1.05;0.70;;;19.90;99.90;;;;;;4211963;28;20214;-75
2023/01/06 10:50:30;;;;;;;0.95;0.63;;;19.90;99.90;;;;;;4208901;28;20226;-74
2023/01/06 10:52:33;;;;;;;0.90;0.68;;;19.90;99.90;;;;;;4209199;28;20605;-75
2023/01/06 10:54:38;;;;;;;1.05;0.60;;;19.90;99.90;;;;;;4202888;28;20219;-75
2023/01/06 10:56:46;;;;;;;0.80;0.68;;;19.90;99.90;;;;;;4212406;28;20268;-75
2023/01/06 10:58:55;;;;;;;1.05;0.70;;;19.90;99.90;;;;;;4208993;28;20233;-75